sensor_id;sensor_type;location;lat;lon;timestamp;P1;durP1;ratioP1;P2;durP2;ratioP2
6388;SDS011;3227;42.654;23.360;2023-07-13T00:01:46;10.85;;;5.13;;
6388;SDS011;3227;42.654;23.360;2023-07-13T00:04:15;12.18;;;5.55;;
6388;SDS011;3227;42.654;23.360;2023-07-13T00:06:43;11.23;;;4.95;;
6388;SDS011;3227;42.654;23.360;2023-07-13T00:09:11;11.30;;;4.80;;
6388;SDS011;3227;42.654;23.360;2023-07-13T00:11:38;10.23;;;4.70;;
6388;SDS011;3227;42.654;23.360;2023-07-13T00:14:05;11.80;;;5.32;;
6388;SDS011;3227;42.654;23.360;2023-07-13T00:16:34;10.00;;;4.85;;
6388;SDS011;3227;42.654;23.360;2023-07-13T00:19:02;8.50;;;5.43;;
6388;SDS011;3227;42.654;23.360;2023-07-13T00:21:29;11.63;;;5.15;;
6388;SDS011;3227;42.654;23.360;2023-07-13T00:23:56;14.65;;;4.97;;
6388;SDS011;3227;42.654;23.360;2023-07-13T00:26:23;9.25;;;4.95;;
6388;SDS011;3227;42.654;23.360;2023-07-13T00:28:50;10.85;;;5.28;;
6388;SDS011;3227;42.654;23.360;2023-07-13T00:31:17;9.73;;;4.60;;
6388;SDS011;3227;42.654;23.360;2023-07-13T00:33:45;11.95;;;4.72;;
6388;SDS011;3227;42.654;23.360;2023-07-13T00:36:12;8.75;;;4.60;;
6388;SDS011;3227;42.654;23.360;2023-07-13T00:38:39;10.82;;;4.85;;
6388;SDS011;3227;42.654;23.360;2023-07-13T00:41:06;11.70;;;4.78;;
6388;SDS011;3227;42.654;23.360;2023-07-13T00:43:33;10.52;;;5.03;;
6388;SDS011;3227;42.654;23.360;2023-07-13T00:48:51;10.95;;;5.32;;
6388;SDS011;3227;42.654;23.360;2023-07-13T00:51:23;11.50;;;5.00;;
6388;SDS011;3227;42.654;23.360;2023-07-13T00:53:55;10.50;;;5.22;;
6388;SDS011;3227;42.654;23.360;2023-07-13T00:56:25;8.75;;;4.78;;
6388;SDS011;3227;42.654;23.360;2023-07-13T00:58:53;11.05;;;5.18;;
6388;SDS011;3227;42.654;23.360;2023-07-13T01:01:21;12.10;;;4.65;;
6388;SDS011;3227;42.654;23.360;2023-07-13T01:03:47;8.70;;;4.88;;
6388;SDS011;3227;42.654;23.360;2023-07-13T01:06:16;11.30;;;5.22;;
6388;SDS011;3227;42.654;23.360;2023-07-13T01:08:42;9.90;;;5.20;;
6388;SDS011;3227;42.654;23.360;2023-07-13T01:11:09;12.32;;;5.18;;
6388;SDS011;3227;42.654;23.360;2023-07-13T01:13:36;8.55;;;4.55;;
6388;SDS011;3227;42.654;23.360;2023-07-13T01:16:04;8.40;;;4.50;;
6388;SDS011;3227;42.654;23.360;2023-07-13T01:18:39;11.63;;;5.05;;
6388;SDS011;3227;42.654;23.360;2023-07-13T01:21:07;9.90;;;5.10;;
6388;SDS011;3227;42.654;23.360;2023-07-13T01:23:34;8.93;;;4.80;;
6388;SDS011;3227;42.654;23.360;2023-07-13T01:26:00;11.77;;;5.15;;
6388;SDS011;3227;42.654;23.360;2023-07-13T01:28:27;9.30;;;4.78;;
6388;SDS011;3227;42.654;23.360;2023-07-13T01:30:56;9.52;;;5.10;;
6388;SDS011;3227;42.654;23.360;2023-07-13T01:33:24;12.15;;;5.00;;
6388;SDS011;3227;42.654;23.360;2023-07-13T01:35:51;7.65;;;4.32;;
6388;SDS011;3227;42.654;23.360;2023-07-13T01:38:21;9.98;;;5.00;;
6388;SDS011;3227;42.654;23.360;2023-07-13T01:40:49;10.23;;;5.32;;
6388;SDS011;3227;42.654;23.360;2023-07-13T01:43:16;8.63;;;4.80;;
6388;SDS011;3227;42.654;23.360;2023-07-13T01:45:43;8.13;;;4.97;;
6388;SDS011;3227;42.654;23.360;2023-07-13T01:48:10;11.27;;;5.40;;
6388;SDS011;3227;42.654;23.360;2023-07-13T01:50:37;8.40;;;4.93;;
6388;SDS011;3227;42.654;23.360;2023-07-13T01:53:05;9.27;;;4.80;;
6388;SDS011;3227;42.654;23.360;2023-07-13T01:55:33;11.30;;;5.75;;
6388;SDS011;3227;42.654;23.360;2023-07-13T01:58:01;11.15;;;5.72;;
6388;SDS011;3227;42.654;23.360;2023-07-13T02:00:28;10.43;;;4.75;;
6388;SDS011;3227;42.654;23.360;2023-07-13T02:02:55;8.68;;;5.20;;
6388;SDS011;3227;42.654;23.360;2023-07-13T02:05:21;9.45;;;4.82;;
6388;SDS011;3227;42.654;23.360;2023-07-13T02:07:48;8.85;;;5.50;;
6388;SDS011;3227;42.654;23.360;2023-07-13T02:10:15;8.73;;;5.50;;
6388;SDS011;3227;42.654;23.360;2023-07-13T02:12:44;9.93;;;5.22;;
6388;SDS011;3227;42.654;23.360;2023-07-13T02:15:11;9.13;;;5.10;;
6388;SDS011;3227;42.654;23.360;2023-07-13T02:17:38;9.77;;;5.47;;
6388;SDS011;3227;42.654;23.360;2023-07-13T02:20:05;8.90;;;5.63;;
6388;SDS011;3227;42.654;23.360;2023-07-13T02:22:33;11.32;;;5.13;;
6388;SDS011;3227;42.654;23.360;2023-07-13T02:25:00;10.27;;;5.07;;
6388;SDS011;3227;42.654;23.360;2023-07-13T02:27:27;9.30;;;5.47;;
6388;SDS011;3227;42.654;23.360;2023-07-13T02:29:55;11.32;;;5.20;;
6388;SDS011;3227;42.654;23.360;2023-07-13T02:32:22;9.60;;;5.00;;
6388;SDS011;3227;42.654;23.360;2023-07-13T02:34:50;9.73;;;4.90;;
6388;SDS011;3227;42.654;23.360;2023-07-13T02:37:17;10.02;;;5.35;;
6388;SDS011;3227;42.654;23.360;2023-07-13T02:39:44;12.93;;;5.03;;
6388;SDS011;3227;42.654;23.360;2023-07-13T02:42:10;11.20;;;5.50;;
6388;SDS011;3227;42.654;23.360;2023-07-13T02:44:37;11.30;;;5.43;;
6388;SDS011;3227;42.654;23.360;2023-07-13T02:47:06;13.10;;;5.82;;
6388;SDS011;3227;42.654;23.360;2023-07-13T02:49:33;13.35;;;5.47;;
6388;SDS011;3227;42.654;23.360;2023-07-13T02:52:00;8.73;;;5.07;;
6388;SDS011;3227;42.654;23.360;2023-07-13T02:54:26;15.23;;;5.25;;
6388;SDS011;3227;42.654;23.360;2023-07-13T02:56:53;10.73;;;5.40;;
6388;SDS011;3227;42.654;23.360;2023-07-13T02:59:20;13.13;;;5.55;;
6388;SDS011;3227;42.654;23.360;2023-07-13T03:01:46;9.65;;;5.65;;
6388;SDS011;3227;42.654;23.360;2023-07-13T03:04:15;10.75;;;5.38;;
6388;SDS011;3227;42.654;23.360;2023-07-13T03:06:44;12.57;;;5.55;;
6388;SDS011;3227;42.654;23.360;2023-07-13T03:09:11;9.48;;;5.63;;
6388;SDS011;3227;42.654;23.360;2023-07-13T03:11:38;10.23;;;5.45;;
6388;SDS011;3227;42.654;23.360;2023-07-13T03:14:05;13.75;;;6.13;;
6388;SDS011;3227;42.654;23.360;2023-07-13T03:16:33;10.98;;;5.60;;
6388;SDS011;3227;42.654;23.360;2023-07-13T03:19:00;10.25;;;5.60;;
6388;SDS011;3227;42.654;23.360;2023-07-13T03:21:28;15.30;;;6.03;;
6388;SDS011;3227;42.654;23.360;2023-07-13T03:23:54;13.50;;;5.72;;
6388;SDS011;3227;42.654;23.360;2023-07-13T03:26:21;13.32;;;5.60;;
6388;SDS011;3227;42.654;23.360;2023-07-13T03:28:48;13.85;;;6.22;;
6388;SDS011;3227;42.654;23.360;2023-07-13T03:31:16;10.68;;;5.45;;
6388;SDS011;3227;42.654;23.360;2023-07-13T03:33:44;12.95;;;5.63;;
6388;SDS011;3227;42.654;23.360;2023-07-13T03:36:12;9.70;;;5.70;;
6388;SDS011;3227;42.654;23.360;2023-07-13T03:38:45;16.17;;;6.28;;
6388;SDS011;3227;42.654;23.360;2023-07-13T03:41:13;11.68;;;5.75;;
6388;SDS011;3227;42.654;23.360;2023-07-13T03:43:40;13.35;;;5.57;;
6388;SDS011;3227;42.654;23.360;2023-07-13T03:46:07;15.40;;;5.75;;
6388;SDS011;3227;42.654;23.360;2023-07-13T03:48:33;15.43;;;5.85;;
6388;SDS011;3227;42.654;23.360;2023-07-13T03:51:00;13.25;;;5.70;;
6388;SDS011;3227;42.654;23.360;2023-07-13T03:53:27;15.43;;;6.63;;
6388;SDS011;3227;42.654;23.360;2023-07-13T03:55:56;12.10;;;5.70;;
6388;SDS011;3227;42.654;23.360;2023-07-13T03:58:24;13.15;;;5.53;;
6388;SDS011;3227;42.654;23.360;2023-07-13T04:00:57;14.40;;;5.63;;
6388;SDS011;3227;42.654;23.360;2023-07-13T04:03:24;14.23;;;5.65;;
6388;SDS011;3227;42.654;23.360;2023-07-13T04:05:53;12.10;;;6.32;;
6388;SDS011;3227;42.654;23.360;2023-07-13T04:08:24;11.95;;;5.43;;
6388;SDS011;3227;42.654;23.360;2023-07-13T04:10:52;12.27;;;6.25;;
6388;SDS011;3227;42.654;23.360;2023-07-13T04:13:20;15.07;;;5.93;;
6388;SDS011;3227;42.654;23.360;2023-07-13T04:15:46;15.43;;;6.95;;
6388;SDS011;3227;42.654;23.360;2023-07-13T04:18:13;15.30;;;6.45;;
6388;SDS011;3227;42.654;23.360;2023-07-13T04:20:40;21.10;;;6.68;;
6388;SDS011;3227;42.654;23.360;2023-07-13T04:23:07;11.98;;;6.03;;
6388;SDS011;3227;42.654;23.360;2023-07-13T04:25:34;12.70;;;5.50;;
6388;SDS011;3227;42.654;23.360;2023-07-13T04:28:02;13.77;;;6.93;;
6388;SDS011;3227;42.654;23.360;2023-07-13T04:30:31;16.75;;;6.72;;
6388;SDS011;3227;42.654;23.360;2023-07-13T04:32:58;16.08;;;7.10;;
6388;SDS011;3227;42.654;23.360;2023-07-13T04:35:25;12.63;;;7.18;;
6388;SDS011;3227;42.654;23.360;2023-07-13T04:37:52;11.88;;;7.10;;
6388;SDS011;3227;42.654;23.360;2023-07-13T04:40:19;12.00;;;6.80;;
6388;SDS011;3227;42.654;23.360;2023-07-13T04:42:46;15.07;;;7.90;;
6388;SDS011;3227;42.654;23.360;2023-07-13T04:45:13;11.52;;;7.00;;
6388;SDS011;3227;42.654;23.360;2023-07-13T04:47:42;11.45;;;7.25;;
6388;SDS011;3227;42.654;23.360;2023-07-13T04:50:09;14.98;;;7.72;;
6388;SDS011;3227;42.654;23.360;2023-07-13T04:52:36;11.55;;;7.07;;
6388;SDS011;3227;42.654;23.360;2023-07-13T04:55:09;13.88;;;7.00;;
6388;SDS011;3227;42.654;23.360;2023-07-13T04:57:35;12.10;;;7.15;;
6388;SDS011;3227;42.654;23.360;2023-07-13T05:00:02;11.73;;;6.68;;
6388;SDS011;3227;42.654;23.360;2023-07-13T05:02:31;15.45;;;7.18;;
6388;SDS011;3227;42.654;23.360;2023-07-13T05:04:59;16.42;;;7.75;;
6388;SDS011;3227;42.654;23.360;2023-07-13T05:07:26;15.23;;;7.00;;
6388;SDS011;3227;42.654;23.360;2023-07-13T05:09:53;15.77;;;7.43;;
6388;SDS011;3227;42.654;23.360;2023-07-13T05:12:20;13.10;;;7.40;;
6388;SDS011;3227;42.654;23.360;2023-07-13T05:14:47;13.13;;;7.10;;
6388;SDS011;3227;42.654;23.360;2023-07-13T05:17:14;10.15;;;6.68;;
6388;SDS011;3227;42.654;23.360;2023-07-13T05:19:41;10.10;;;7.10;;
6388;SDS011;3227;42.654;23.360;2023-07-13T05:22:09;15.60;;;7.25;;
6388;SDS011;3227;42.654;23.360;2023-07-13T05:24:36;15.60;;;7.55;;
6388;SDS011;3227;42.654;23.360;2023-07-13T05:27:03;17.30;;;7.15;;
6388;SDS011;3227;42.654;23.360;2023-07-13T05:29:31;14.38;;;7.05;;
6388;SDS011;3227;42.654;23.360;2023-07-13T05:31:57;12.93;;;7.32;;
6388;SDS011;3227;42.654;23.360;2023-07-13T05:34:24;15.07;;;7.57;;
6388;SDS011;3227;42.654;23.360;2023-07-13T05:36:51;21.40;;;7.82;;
6388;SDS011;3227;42.654;23.360;2023-07-13T05:39:20;17.13;;;7.40;;
6388;SDS011;3227;42.654;23.360;2023-07-13T05:41:46;13.65;;;7.57;;
6388;SDS011;3227;42.654;23.360;2023-07-13T05:44:13;12.73;;;6.60;;
6388;SDS011;3227;42.654;23.360;2023-07-13T05:46:40;12.32;;;7.30;;
6388;SDS011;3227;42.654;23.360;2023-07-13T05:49:07;16.05;;;7.72;;
6388;SDS011;3227;42.654;23.360;2023-07-13T05:51:33;12.07;;;6.65;;
6388;SDS011;3227;42.654;23.360;2023-07-13T05:54:00;16.30;;;7.72;;
6388;SDS011;3227;42.654;23.360;2023-07-13T05:56:28;14.63;;;7.63;;
6388;SDS011;3227;42.654;23.360;2023-07-13T05:58:55;12.32;;;7.20;;
6388;SDS011;3227;42.654;23.360;2023-07-13T06:01:22;13.35;;;7.43;;
6388;SDS011;3227;42.654;23.360;2023-07-13T06:03:49;14.43;;;7.22;;
6388;SDS011;3227;42.654;23.360;2023-07-13T06:06:16;13.63;;;6.80;;
6388;SDS011;3227;42.654;23.360;2023-07-13T06:08:43;17.20;;;6.78;;
6388;SDS011;3227;42.654;23.360;2023-07-13T06:11:12;17.33;;;7.25;;
6388;SDS011;3227;42.654;23.360;2023-07-13T06:13:43;12.98;;;7.10;;
6388;SDS011;3227;42.654;23.360;2023-07-13T06:16:10;14.98;;;7.22;;
6388;SDS011;3227;42.654;23.360;2023-07-13T06:18:37;10.63;;;6.65;;
6388;SDS011;3227;42.654;23.360;2023-07-13T06:21:07;11.40;;;6.60;;
6388;SDS011;3227;42.654;23.360;2023-07-13T06:23:35;13.40;;;6.72;;
6388;SDS011;3227;42.654;23.360;2023-07-13T06:26:02;11.70;;;6.40;;
6388;SDS011;3227;42.654;23.360;2023-07-13T06:28:29;12.40;;;7.03;;
6388;SDS011;3227;42.654;23.360;2023-07-13T06:30:58;11.55;;;6.63;;
6388;SDS011;3227;42.654;23.360;2023-07-13T06:33:25;12.90;;;7.32;;
6388;SDS011;3227;42.654;23.360;2023-07-13T06:35:52;11.70;;;7.22;;
6388;SDS011;3227;42.654;23.360;2023-07-13T06:38:19;16.65;;;7.28;;
6388;SDS011;3227;42.654;23.360;2023-07-13T06:40:46;10.40;;;7.18;;
6388;SDS011;3227;42.654;23.360;2023-07-13T06:43:13;13.63;;;6.40;;
6388;SDS011;3227;42.654;23.360;2023-07-13T06:45:55;16.00;;;7.45;;
6388;SDS011;3227;42.654;23.360;2023-07-13T06:48:23;15.23;;;6.97;;
6388;SDS011;3227;42.654;23.360;2023-07-13T06:50:50;13.05;;;6.85;;
6388;SDS011;3227;42.654;23.360;2023-07-13T06:53:18;11.57;;;7.13;;
6388;SDS011;3227;42.654;23.360;2023-07-13T06:55:46;13.73;;;7.65;;
6388;SDS011;3227;42.654;23.360;2023-07-13T06:58:14;15.07;;;8.35;;
6388;SDS011;3227;42.654;23.360;2023-07-13T07:00:42;15.10;;;7.68;;
6388;SDS011;3227;42.654;23.360;2023-07-13T07:03:09;13.80;;;7.50;;
6388;SDS011;3227;42.654;23.360;2023-07-13T07:05:37;16.50;;;7.63;;
6388;SDS011;3227;42.654;23.360;2023-07-13T07:08:04;21.40;;;8.38;;
6388;SDS011;3227;42.654;23.360;2023-07-13T07:10:31;14.35;;;7.60;;
6388;SDS011;3227;42.654;23.360;2023-07-13T07:12:58;20.00;;;7.97;;
6388;SDS011;3227;42.654;23.360;2023-07-13T07:15:25;13.20;;;7.05;;
6388;SDS011;3227;42.654;23.360;2023-07-13T07:17:52;14.02;;;7.85;;
6388;SDS011;3227;42.654;23.360;2023-07-13T07:20:18;13.77;;;7.28;;
6388;SDS011;3227;42.654;23.360;2023-07-13T07:22:46;13.85;;;7.07;;
6388;SDS011;3227;42.654;23.360;2023-07-13T07:25:13;15.30;;;7.95;;
6388;SDS011;3227;42.654;23.360;2023-07-13T07:27:41;19.70;;;7.85;;
6388;SDS011;3227;42.654;23.360;2023-07-13T07:30:08;17.13;;;7.93;;
6388;SDS011;3227;42.654;23.360;2023-07-13T07:32:35;14.80;;;7.72;;
6388;SDS011;3227;42.654;23.360;2023-07-13T07:35:02;14.07;;;7.70;;
6388;SDS011;3227;42.654;23.360;2023-07-13T07:37:28;22.60;;;8.25;;
6388;SDS011;3227;42.654;23.360;2023-07-13T07:39:57;15.73;;;7.80;;
6388;SDS011;3227;42.654;23.360;2023-07-13T07:42:24;15.77;;;7.80;;
6388;SDS011;3227;42.654;23.360;2023-07-13T07:44:51;20.45;;;8.60;;
6388;SDS011;3227;42.654;23.360;2023-07-13T07:47:17;18.17;;;7.80;;
6388;SDS011;3227;42.654;23.360;2023-07-13T07:49:44;24.77;;;8.65;;
6388;SDS011;3227;42.654;23.360;2023-07-13T07:52:11;22.55;;;8.85;;
6388;SDS011;3227;42.654;23.360;2023-07-13T07:54:38;22.45;;;8.18;;
6388;SDS011;3227;42.654;23.360;2023-07-13T07:57:06;17.27;;;7.78;;
6388;SDS011;3227;42.654;23.360;2023-07-13T07:59:33;21.75;;;7.80;;
6388;SDS011;3227;42.654;23.360;2023-07-13T08:02:00;17.75;;;8.65;;
6388;SDS011;3227;42.654;23.360;2023-07-13T08:04:27;15.07;;;8.68;;
6388;SDS011;3227;42.654;23.360;2023-07-13T08:06:54;15.85;;;8.32;;
6388;SDS011;3227;42.654;23.360;2023-07-13T09:30:17;14.52;;;9.15;;
6388;SDS011;3227;42.654;23.360;2023-07-13T09:32:51;18.52;;;9.10;;
6388;SDS011;3227;42.654;23.360;2023-07-13T09:35:20;17.83;;;8.88;;
6388;SDS011;3227;42.654;23.360;2023-07-13T09:37:51;20.25;;;9.13;;
6388;SDS011;3227;42.654;23.360;2023-07-13T09:40:24;15.65;;;8.93;;
6388;SDS011;3227;42.654;23.360;2023-07-13T09:43:01;18.33;;;9.20;;
6388;SDS011;3227;42.654;23.360;2023-07-13T09:45:32;18.95;;;8.93;;
6388;SDS011;3227;42.654;23.360;2023-07-13T09:48:03;20.27;;;8.88;;
6388;SDS011;3227;42.654;23.360;2023-07-13T09:50:31;16.30;;;8.93;;
6388;SDS011;3227;42.654;23.360;2023-07-13T09:52:58;15.95;;;8.80;;
6388;SDS011;3227;42.654;23.360;2023-07-13T09:55:29;15.60;;;9.10;;
6388;SDS011;3227;42.654;23.360;2023-07-13T09:57:57;16.05;;;8.15;;
6388;SDS011;3227;42.654;23.360;2023-07-13T10:00:31;19.55;;;9.43;;
6388;SDS011;3227;42.654;23.360;2023-07-13T10:02:59;13.98;;;9.02;;
6388;SDS011;3227;42.654;23.360;2023-07-13T10:05:36;17.85;;;9.43;;
6388;SDS011;3227;42.654;23.360;2023-07-13T10:08:05;12.30;;;8.88;;
6388;SDS011;3227;42.654;23.360;2023-07-13T10:10:32;17.35;;;8.95;;
6388;SDS011;3227;42.654;23.360;2023-07-13T10:13:00;16.92;;;9.40;;
6388;SDS011;3227;42.654;23.360;2023-07-13T10:15:29;16.25;;;9.55;;
6388;SDS011;3227;42.654;23.360;2023-07-13T10:17:58;16.48;;;9.45;;
6388;SDS011;3227;42.654;23.360;2023-07-13T10:20:25;20.00;;;9.43;;
6388;SDS011;3227;42.654;23.360;2023-07-13T10:22:54;13.80;;;9.20;;
6388;SDS011;3227;42.654;23.360;2023-07-13T10:25:26;18.55;;;9.38;;
6388;SDS011;3227;42.654;23.360;2023-07-13T10:27:58;18.85;;;9.05;;
6388;SDS011;3227;42.654;23.360;2023-07-13T10:30:32;19.38;;;9.52;;
6388;SDS011;3227;42.654;23.360;2023-07-13T10:33:02;14.02;;;8.68;;
6388;SDS011;3227;42.654;23.360;2023-07-13T10:35:36;14.95;;;8.90;;
6388;SDS011;3227;42.654;23.360;2023-07-13T10:38:06;17.95;;;8.60;;
6388;SDS011;3227;42.654;23.360;2023-07-13T10:40:37;13.93;;;8.82;;
6388;SDS011;3227;42.654;23.360;2023-07-13T10:43:06;15.30;;;8.00;;
6388;SDS011;3227;42.654;23.360;2023-07-13T10:45:42;16.63;;;8.60;;
6388;SDS011;3227;42.654;23.360;2023-07-13T10:48:15;15.63;;;8.00;;
6388;SDS011;3227;42.654;23.360;2023-07-13T10:50:44;12.35;;;7.68;;
6388;SDS011;3227;42.654;23.360;2023-07-13T10:53:18;12.20;;;7.00;;
6388;SDS011;3227;42.654;23.360;2023-07-13T10:55:57;11.10;;;5.68;;
6388;SDS011;3227;42.654;23.360;2023-07-13T10:58:28;15.00;;;5.82;;
6388;SDS011;3227;42.654;23.360;2023-07-13T11:01:01;12.15;;;5.28;;
6388;SDS011;3227;42.654;23.360;2023-07-13T11:03:33;13.60;;;5.40;;
6388;SDS011;3227;42.654;23.360;2023-07-13T11:06:06;12.00;;;5.13;;
6388;SDS011;3227;42.654;23.360;2023-07-13T11:08:36;9.13;;;4.88;;
6388;SDS011;3227;42.654;23.360;2023-07-13T11:11:31;13.07;;;4.90;;
6388;SDS011;3227;42.654;23.360;2023-07-13T11:14:02;9.05;;;5.35;;
6388;SDS011;3227;42.654;23.360;2023-07-13T11:16:41;14.90;;;5.28;;
6388;SDS011;3227;42.654;23.360;2023-07-13T11:24:53;19.17;;;6.10;;
6388;SDS011;3227;42.654;23.360;2023-07-13T11:33:09;16.67;;;7.65;;
6388;SDS011;3227;42.654;23.360;2023-07-13T11:35:42;14.40;;;8.15;;
6388;SDS011;3227;42.654;23.360;2023-07-13T11:38:14;16.85;;;8.23;;
6388;SDS011;3227;42.654;23.360;2023-07-13T11:40:44;16.95;;;7.70;;
6388;SDS011;3227;42.654;23.360;2023-07-13T11:43:13;13.68;;;7.35;;
6388;SDS011;3227;42.654;23.360;2023-07-13T11:45:41;13.13;;;7.40;;
6388;SDS011;3227;42.654;23.360;2023-07-13T11:48:20;17.52;;;6.50;;
6388;SDS011;3227;42.654;23.360;2023-07-13T11:50:52;11.93;;;5.88;;
6388;SDS011;3227;42.654;23.360;2023-07-13T11:53:24;14.45;;;5.78;;
6388;SDS011;3227;42.654;23.360;2023-07-13T11:55:54;14.30;;;5.82;;
6388;SDS011;3227;42.654;23.360;2023-07-13T11:58:23;14.68;;;5.78;;
6388;SDS011;3227;42.654;23.360;2023-07-13T12:00:50;10.80;;;5.82;;
6388;SDS011;3227;42.654;23.360;2023-07-13T12:03:21;13.77;;;5.95;;
6388;SDS011;3227;42.654;23.360;2023-07-13T12:06:00;14.45;;;6.10;;
6388;SDS011;3227;42.654;23.360;2023-07-13T12:08:28;15.98;;;5.72;;
6388;SDS011;3227;42.654;23.360;2023-07-13T12:11:03;17.20;;;6.05;;
6388;SDS011;3227;42.654;23.360;2023-07-13T12:13:41;17.00;;;5.68;;
6388;SDS011;3227;42.654;23.360;2023-07-13T12:16:10;12.77;;;5.90;;
6388;SDS011;3227;42.654;23.360;2023-07-13T12:18:42;17.58;;;6.38;;
6388;SDS011;3227;42.654;23.360;2023-07-13T12:21:13;10.65;;;5.20;;
6388;SDS011;3227;42.654;23.360;2023-07-13T12:23:44;13.93;;;5.57;;
6388;SDS011;3227;42.654;23.360;2023-07-13T12:26:14;11.60;;;5.78;;
6388;SDS011;3227;42.654;23.360;2023-07-13T12:28:44;16.70;;;5.55;;
6388;SDS011;3227;42.654;23.360;2023-07-13T12:31:29;19.80;;;5.05;;
6388;SDS011;3227;42.654;23.360;2023-07-13T12:34:02;10.77;;;5.20;;
6388;SDS011;3227;42.654;23.360;2023-07-13T12:36:33;13.52;;;6.10;;
6388;SDS011;3227;42.654;23.360;2023-07-13T12:39:03;13.93;;;5.40;;
6388;SDS011;3227;42.654;23.360;2023-07-13T12:41:38;16.20;;;6.40;;
6388;SDS011;3227;42.654;23.360;2023-07-13T12:44:08;11.88;;;5.22;;
6388;SDS011;3227;42.654;23.360;2023-07-13T12:46:36;15.05;;;6.80;;
6388;SDS011;3227;42.654;23.360;2023-07-13T12:49:05;12.68;;;5.57;;
6388;SDS011;3227;42.654;23.360;2023-07-13T12:51:33;12.13;;;5.88;;
6388;SDS011;3227;42.654;23.360;2023-07-13T12:54:06;18.05;;;6.70;;
6388;SDS011;3227;42.654;23.360;2023-07-13T12:56:41;17.67;;;7.32;;
6388;SDS011;3227;42.654;23.360;2023-07-13T12:59:08;18.58;;;6.78;;
6388;SDS011;3227;42.654;23.360;2023-07-13T13:01:43;18.52;;;6.88;;
6388;SDS011;3227;42.654;23.360;2023-07-13T13:04:11;19.02;;;7.43;;
6388;SDS011;3227;42.654;23.360;2023-07-13T13:06:38;14.63;;;7.75;;
6388;SDS011;3227;42.654;23.360;2023-07-13T13:09:09;16.20;;;7.57;;
6388;SDS011;3227;42.654;23.360;2023-07-13T13:11:38;16.33;;;7.70;;
6388;SDS011;3227;42.654;23.360;2023-07-13T13:14:05;16.48;;;6.93;;
6388;SDS011;3227;42.654;23.360;2023-07-13T13:16:32;15.43;;;6.80;;
6388;SDS011;3227;42.654;23.360;2023-07-13T13:19:02;12.68;;;6.95;;
6388;SDS011;3227;42.654;23.360;2023-07-13T13:21:39;14.93;;;7.00;;
6388;SDS011;3227;42.654;23.360;2023-07-13T13:24:09;17.38;;;6.85;;
6388;SDS011;3227;42.654;23.360;2023-07-13T13:26:37;16.77;;;7.25;;
6388;SDS011;3227;42.654;23.360;2023-07-13T13:29:09;16.67;;;6.70;;
6388;SDS011;3227;42.654;23.360;2023-07-13T13:31:40;17.13;;;6.90;;
6388;SDS011;3227;42.654;23.360;2023-07-13T13:34:08;22.33;;;7.07;;
6388;SDS011;3227;42.654;23.360;2023-07-13T13:36:36;13.32;;;6.18;;
6388;SDS011;3227;42.654;23.360;2023-07-13T13:39:08;19.67;;;7.43;;
6388;SDS011;3227;42.654;23.360;2023-07-13T13:41:46;17.25;;;6.70;;
6388;SDS011;3227;42.654;23.360;2023-07-13T13:44:13;18.05;;;6.90;;
6388;SDS011;3227;42.654;23.360;2023-07-13T13:46:41;18.90;;;6.82;;
6388;SDS011;3227;42.654;23.360;2023-07-13T13:49:10;17.85;;;6.53;;
6388;SDS011;3227;42.654;23.360;2023-07-13T13:51:42;13.45;;;6.63;;
6388;SDS011;3227;42.654;23.360;2023-07-13T13:54:12;13.77;;;6.28;;
6388;SDS011;3227;42.654;23.360;2023-07-13T13:56:41;14.73;;;6.72;;
6388;SDS011;3227;42.654;23.360;2023-07-13T13:59:08;15.70;;;7.18;;
6388;SDS011;3227;42.654;23.360;2023-07-13T14:01:35;17.52;;;6.85;;
6388;SDS011;3227;42.654;23.360;2023-07-13T14:04:03;16.73;;;7.45;;
6388;SDS011;3227;42.654;23.360;2023-07-13T14:06:32;13.50;;;7.03;;
6388;SDS011;3227;42.654;23.360;2023-07-13T14:08:59;17.98;;;6.90;;
6388;SDS011;3227;42.654;23.360;2023-07-13T14:11:29;16.45;;;7.22;;
6388;SDS011;3227;42.654;23.360;2023-07-13T14:13:58;14.60;;;6.57;;
6388;SDS011;3227;42.654;23.360;2023-07-13T14:16:28;17.05;;;6.70;;
6388;SDS011;3227;42.654;23.360;2023-07-13T14:18:58;16.55;;;7.38;;
6388;SDS011;3227;42.654;23.360;2023-07-13T14:21:26;15.38;;;6.53;;
6388;SDS011;3227;42.654;23.360;2023-07-13T14:23:54;11.68;;;6.70;;
6388;SDS011;3227;42.654;23.360;2023-07-13T14:26:22;14.38;;;6.43;;
6388;SDS011;3227;42.654;23.360;2023-07-13T14:28:52;14.32;;;6.45;;
6388;SDS011;3227;42.654;23.360;2023-07-13T14:31:21;18.52;;;6.80;;
6388;SDS011;3227;42.654;23.360;2023-07-13T14:33:49;16.83;;;6.35;;
6388;SDS011;3227;42.654;23.360;2023-07-13T14:36:20;17.85;;;6.65;;
6388;SDS011;3227;42.654;23.360;2023-07-13T14:38:53;14.35;;;6.25;;
6388;SDS011;3227;42.654;23.360;2023-07-13T14:41:19;12.85;;;5.72;;
6388;SDS011;3227;42.654;23.360;2023-07-13T14:49:15;15.43;;;5.35;;
6388;SDS011;3227;42.654;23.360;2023-07-13T14:51:50;15.23;;;6.00;;
6388;SDS011;3227;42.654;23.360;2023-07-13T14:54:17;14.68;;;5.32;;
6388;SDS011;3227;42.654;23.360;2023-07-13T14:56:44;14.00;;;4.97;;
6388;SDS011;3227;42.654;23.360;2023-07-13T14:59:11;11.38;;;5.57;;
6388;SDS011;3227;42.654;23.360;2023-07-13T15:01:38;18.08;;;5.28;;
6388;SDS011;3227;42.654;23.360;2023-07-13T15:04:07;18.05;;;6.28;;
6388;SDS011;3227;42.654;23.360;2023-07-13T15:09:24;16.83;;;5.70;;
6388;SDS011;3227;42.654;23.360;2023-07-13T15:11:51;15.63;;;5.47;;
6388;SDS011;3227;42.654;23.360;2023-07-13T15:14:18;28.75;;;6.28;;
6388;SDS011;3227;42.654;23.360;2023-07-13T15:16:46;15.27;;;5.80;;
6388;SDS011;3227;42.654;23.360;2023-07-13T15:19:17;12.13;;;5.45;;
6388;SDS011;3227;42.654;23.360;2023-07-13T15:21:45;11.13;;;5.95;;
6388;SDS011;3227;42.654;23.360;2023-07-13T15:24:12;31.98;;;7.45;;
6388;SDS011;3227;42.654;23.360;2023-07-13T15:26:40;19.85;;;7.03;;
6388;SDS011;3227;42.654;23.360;2023-07-13T15:29:10;18.05;;;7.32;;
6388;SDS011;3227;42.654;23.360;2023-07-13T15:31:37;13.20;;;6.50;;
6388;SDS011;3227;42.654;23.360;2023-07-13T15:34:09;17.42;;;7.20;;
6388;SDS011;3227;42.654;23.360;2023-07-13T15:36:39;15.70;;;8.00;;
6388;SDS011;3227;42.654;23.360;2023-07-13T15:39:06;22.13;;;7.90;;
6388;SDS011;3227;42.654;23.360;2023-07-13T15:41:39;18.83;;;6.85;;
6388;SDS011;3227;42.654;23.360;2023-07-13T15:44:18;15.68;;;7.07;;
6388;SDS011;3227;42.654;23.360;2023-07-13T15:46:49;28.20;;;6.95;;
6388;SDS011;3227;42.654;23.360;2023-07-13T15:49:16;28.75;;;7.50;;
6388;SDS011;3227;42.654;23.360;2023-07-13T15:51:44;12.65;;;5.70;;
6388;SDS011;3227;42.654;23.360;2023-07-13T15:54:13;12.57;;;5.57;;
6388;SDS011;3227;42.654;23.360;2023-07-13T15:56:42;15.07;;;5.75;;
6388;SDS011;3227;42.654;23.360;2023-07-13T15:59:10;18.77;;;6.05;;
6388;SDS011;3227;42.654;23.360;2023-07-13T16:01:39;14.48;;;5.90;;
6388;SDS011;3227;42.654;23.360;2023-07-13T16:04:07;17.42;;;6.65;;
6388;SDS011;3227;42.654;23.360;2023-07-13T16:06:34;18.58;;;6.53;;
6388;SDS011;3227;42.654;23.360;2023-07-13T16:09:06;18.52;;;5.63;;
6388;SDS011;3227;42.654;23.360;2023-07-13T16:11:36;14.88;;;6.43;;
6388;SDS011;3227;42.654;23.360;2023-07-13T16:14:04;14.63;;;5.88;;
6388;SDS011;3227;42.654;23.360;2023-07-13T16:16:32;17.63;;;5.93;;
6388;SDS011;3227;42.654;23.360;2023-07-13T16:19:01;15.10;;;5.72;;
6388;SDS011;3227;42.654;23.360;2023-07-13T16:21:31;15.10;;;5.82;;
6388;SDS011;3227;42.654;23.360;2023-07-13T16:24:00;14.05;;;5.90;;
6388;SDS011;3227;42.654;23.360;2023-07-13T16:26:35;18.30;;;6.20;;
6388;SDS011;3227;42.654;23.360;2023-07-13T16:29:09;21.02;;;6.13;;
6388;SDS011;3227;42.654;23.360;2023-07-13T16:31:37;16.20;;;5.90;;
6388;SDS011;3227;42.654;23.360;2023-07-13T16:34:04;24.05;;;6.28;;
6388;SDS011;3227;42.654;23.360;2023-07-13T16:36:34;14.27;;;6.18;;
6388;SDS011;3227;42.654;23.360;2023-07-13T16:39:01;17.60;;;6.05;;
6388;SDS011;3227;42.654;23.360;2023-07-13T16:41:38;19.15;;;7.35;;